Time;durP1;ratioP1;P1;durP2;ratioP2;P2;SDS_P1;SDS_P2;PMS_P1;PMS_P2;Temp;Humidity;BMP_temperature;BMP_pressure;BME280_temperature;BME280_humidity;BME280_pressure;Samples;Min_cycle;Max_cycle;Signal;HPM_P1;HPM_P2
2021/12/19 12:00:26;;;;;;;12.20;6.37;;;;;;;5.67;97.04;99976.38;5107188;28;21093;-85
2021/12/19 12:03:21;;;;;;;8.93;5.20;;;;;;;6.27;95.34;99966.97;5089651;28;38725;-83
2021/12/19 12:05:51;;;;;;;8.33;4.97;;;;;;;6.68;91.64;99961.38;5107275;28;41970;-84
2021/12/19 12:08:20;;;;;;;10.10;5.37;;;;;;;6.96;88.71;99947.41;5106188;28;41962;-85
2021/12/19 12:11:09;;;;;;;6.63;4.37;;;;;;;7.38;86.66;99954.00;5086606;28;41032;-85
2021/12/19 12:13:39;;;;;;;9.40;4.80;;;;;;;7.60;84.72;99950.66;5085809;28;38900;-87
2021/12/19 12:16:38;;;;;;;8.67;3.70;;;;;;;7.81;83.33;99936.75;5086784;28;43212;-88
2021/12/19 12:19:07;;;;;;;7.70;4.83;;;;;;;7.95;81.87;99937.13;5086484;28;42390;-81
2021/12/19 12:21:41;;;;;;;7.07;4.13;;;;;;;7.99;80.81;99938.75;5079258;28;42758;-86
2021/12/19 12:24:19;;;;;;;5.57;3.83;;;;;;;8.12;80.43;99929.50;5089123;28;39074;-87
2021/12/19 12:26:56;;;;;;;9.60;5.53;;;;;;;8.17;79.67;99938.09;5089520;28;40711;-85
2021/12/19 12:29:24;;;;;;;7.77;4.37;;;;;;;8.20;79.56;99923.94;5105602;28;43668;-89
2021/12/19 12:31:54;;;;;;;9.37;4.63;;;;;;;8.26;78.90;99932.53;5089194;28;40683;-91
2021/12/19 12:34:22;;;;;;;6.47;4.27;;;;;;;8.30;79.17;99923.56;5105815;28;39665;-82
2021/12/19 12:36:51;;;;;;;5.90;3.60;;;;;;;8.36;79.04;99911.97;5107226;28;41518;-80
2021/12/19 12:39:27;;;;;;;7.67;4.60;;;;;;;8.32;77.58;99912.13;5106673;28;42624;-86
2021/12/19 12:42:03;;;;;;;9.43;4.50;;;;;;;8.25;77.26;99900.91;5106468;28;42430;-84
2021/12/19 12:44:31;;;;;;;5.93;3.77;;;;;;;8.25;76.94;99914.97;5106456;28;38626;-86
2021/12/19 12:47:01;;;;;;;7.37;3.70;;;;;;;8.26;77.12;99910.53;5106764;28;41943;-85
2021/12/19 12:49:34;;;;;;;5.60;3.80;;;;;;;8.18;76.64;99887.06;5129693;27;42773;-89
2021/12/19 12:52:05;;;;;;;6.53;3.30;;;;;;;8.31;76.85;99903.31;5068871;28;42644;-84
2021/12/19 12:54:36;;;;;;;9.00;4.10;;;;;;;8.35;76.06;99898.81;5069361;28;41617;-85
2021/12/19 12:57:08;;;;;;;6.97;3.83;;;;;;;8.30;76.40;99875.19;5086539;28;41884;-87
2021/12/19 12:59:39;;;;;;;6.77;4.07;;;;;;;8.40;76.03;99891.59;5076107;28;41514;-81
2021/12/19 13:02:13;;;;;;;6.47;3.40;;;;;;;8.46;75.53;99886.94;5106089;28;41615;-89
2021/12/19 13:04:53;;;;;;;6.63;3.63;;;;;;;8.50;76.20;99877.13;5106093;28;40354;-86
2021/12/19 13:07:21;;;;;;;9.10;3.63;;;;;;;8.50;75.65;99883.28;5088375;28;40951;-84
2021/12/19 13:09:51;;;;;;;4.50;3.10;;;;;;;8.48;75.97;99869.25;5101179;28;42024;-83
2021/12/19 13:12:21;;;;;;;6.30;3.83;;;;;;;8.51;76.02;99868.28;5093353;28;41906;-83
2021/12/19 13:14:50;;;;;;;7.80;4.63;;;;;;;8.50;75.37;99858.66;5093156;28;40836;-86
2021/12/19 13:17:23;;;;;;;8.63;4.57;;;;;;;8.50;75.96;99850.72;5092080;28;41506;-84
2021/12/19 13:19:54;;;;;;;8.30;4.50;;;;;;;8.43;75.77;99823.69;5091242;28;41952;-84
2021/12/19 13:22:25;;;;;;;5.37;3.70;;;;;;;8.50;75.64;99837.53;5074012;28;41013;-79
2021/12/19 13:24:54;;;;;;;9.10;4.90;;;;;;;8.51;75.71;99837.47;5074817;28;38997;-83
2021/12/19 13:27:24;;;;;;;7.67;3.80;;;;;;;8.49;75.55;99838.44;5092450;28;40618;-85
2021/12/19 13:30:07;;;;;;;6.53;3.80;;;;;;;8.44;75.66;99829.81;5112154;28;43558;-84
2021/12/19 13:32:38;;;;;;;8.10;4.20;;;;;;;8.40;75.51;99823.84;5110866;28;40842;-82
2021/12/19 13:35:09;;;;;;;9.60;4.00;;;;;;;8.42;75.97;99827.25;5113304;28;40877;-87
2021/12/19 13:37:47;;;;;;;8.60;4.00;;;;;;;8.43;76.21;99822.81;5111707;28;41834;-85
2021/12/19 13:40:16;;;;;;;6.67;4.13;;;;;;;8.37;76.07;99801.97;5105324;28;42736;-89
2021/12/19 13:42:51;;;;;;;7.80;4.20;;;;;;;8.32;75.42;99809.19;5075033;28;40959;-84
2021/12/19 13:45:48;;;;;;;5.13;3.40;;;;;;;8.40;75.57;99822.97;5093108;28;40013;-81
2021/12/19 13:48:35;;;;;;;6.67;3.87;;;;;;;8.33;75.52;99834.66;5073418;28;41617;-83
2021/12/19 13:51:07;;;;;;;7.77;4.00;;;;;;;8.25;75.92;99804.13;5089285;28;43832;-89
2021/12/19 13:53:36;;;;;;;8.00;3.67;;;;;;;8.24;75.87;99818.22;5091044;28;42139;-82
2021/12/19 13:56:06;;;;;;;9.03;4.57;;;;;;;8.26;75.89;99821.69;5084698;28;38941;-80
2021/12/19 13:58:36;;;;;;;8.83;4.07;;;;;;;8.20;75.90;99821.03;5120715;28;41593;-79
2021/12/19 14:01:13;;;;;;;7.33;4.20;;;;;;;8.16;76.00;99807.09;5105130;28;43143;-81
2021/12/19 14:03:46;;;;;;;8.17;4.73;;;;;;;8.16;75.78;99801.81;5104676;28;42305;-79
2021/12/19 14:06:15;;;;;;;7.70;3.87;;;;;;;8.13;75.64;99812.50;5087216;28;38945;-79
2021/12/19 14:08:53;;;;;;;10.63;4.20;;;;;;;8.19;75.37;99822.81;5099568;28;41519;-83
2021/12/19 14:11:22;;;;;;;7.93;3.70;;;;;;;8.11;75.59;99816.09;5097296;28;42636;-83
2021/12/19 14:14:01;;;;;;;7.90;4.03;;;;;;;8.16;75.78;99812.38;5096755;28;42099;-81
2021/12/19 14:16:35;;;;;;;9.13;3.73;;;;;;;8.14;75.75;99811.59;5099364;28;40711;-83
2021/12/19 14:19:16;;;;;;;7.70;3.73;;;;;;;8.18;76.21;99818.44;5079029;28;41555;-84
2021/12/19 14:21:45;;;;;;;7.97;4.07;;;;;;;8.15;76.35;99813.31;5073878;28;42840;-82
2021/12/19 14:24:28;;;;;;;5.07;3.90;;;;;;;8.18;76.28;99817.59;5092190;28;42116;-85
2021/12/19 14:27:11;;;;;;;9.77;4.63;;;;;;;8.16;76.18;99820.28;5092314;28;39849;-86
2021/12/19 14:29:41;;;;;;;6.47;3.70;;;;;;;8.13;76.17;99819.56;5083816;28;40936;-83
2021/12/19 14:32:10;;;;;;;9.07;5.23;;;;;;;8.10;75.97;99809.97;5074178;28;41838;-86
2021/12/19 14:34:40;;;;;;;8.27;4.43;;;;;;;8.10;76.11;99804.69;5091633;28;42776;-83
2021/12/19 14:37:19;;;;;;;9.87;4.87;;;;;;;8.06;75.98;99803.06;5073804;28;39115;-82
